Alton, IA (51003)

11:28 AM CDT on August 29, 2015 (GMT -0500)
Orange City Municipal | | Change Station
CLOSE
Current Station
Airport
Location: Orange City,
Elevation: 1414 ft
Nearby Weather Stations

Elev 1414 ft 42.99 °N, 96.06 °W | Updated 13 minutes ago

Overcast
Overcast
59 °F
Feels Like 59 °F
N
0
Wind Variable Wind from North

Today
High -- | Low -- °F
--% Chance of Precip.
Yesterday
High -- | Low -- °F
Precip. -- in
6:45 AM 8:04 PM
Full, 100% visible
Pressure 30.10 in
Visibility 5.0 miles
Clouds Overcast 200 ft
Dew Point 59 °F
Humidity 100%
Rainfall 0.00 in
Snow Depth Not available.
UV 2 out of 12
Pollen 9.40 out of 12
Air Quality Not available.
Flu Activity Not available.
METAR KORC 291615Z AUTO 00000KT 5SM BR OVC002 15/15 A3010 RMK AO2
Pressure 30.10 in
Visibility 5.0 miles
Clouds Overcast 200 ft
Dew Point 59 °F
Humidity 100%
Rainfall 0.00 in
Snow Depth Not available.
UV 2 out of 12
Pollen 9.40 out of 12
Air Quality Not available.
Flu Activity Not available.
METAR KORC 291615Z AUTO 00000KT 5SM BR OVC002 15/15 A3010 RMK AO2

10-Day Weather Forecast

×

Almanac

Astronomy

Aug. 29, 2015 Rise Set
Actual Time
Civil Twilight
Nautical Twilight
Astronomical Twilight
Moon
Length of Visible Light
Length of Day
Tomorrow will be .
, % of the Moon is Illuminated

Today's Extremes

State Highs State Lows

Community

WunderPhotos

Upload Photos

1,850,719 photos uploaded!

WunderBlogs® & News

Nearby

Air Quality

  Air Quality AQ Index Pollutant
Not available.

Snow Depth

Station Depth Elevation

Earthquake Activity

City Distance Mag. Time & Date
Minimum magnitude displayed is 2.5.

Coastal Water Temperatures

Place Temperature

Stations

Nearby Weather Stations

Station Location Temp. Windchill Dew Point Humidity Wind Precip. Elev Updated Type